Date,TemperatureHighF,TemperatureAvgF,TemperatureLowF,DewpointHighF,DewpointAvgF,DewpointLowF,HumidityHigh,HumidityAvg,HumidityLow,PressureMaxIn,PressureMinIn,WindSpeedMaxMPH,WindSpeedAvgMPH,GustSpeedMaxMPH,PrecipitationSumIn
2013-1-1,33.4,30.6,23.5,31.2,27.4,17.3,94,88,77,30.12,30.00,1,0,4,0.02
2013-1-2,28.9,22.1,15.9,18.9,16.2,13.2,90,78,63,30.30,30.10,2,0,5,0.01
2013-1-3,35.1,22.4,8.0,24.1,16.5,5.3,92,79,61,30.31,30.19,2,0,7,0.08
2013-1-4,36.1,29.9,26.3,24.8,22.6,19.6,81,74,62,30.30,30.18,2,0,8,0.04
2013-1-5,36.7,30.5,24.5,28.1,24.1,19.2,85,77,64,30.44,30.19,2,0,7,0.12
2013-1-6,39.3,35.1,31.2,32.5,29.9,26.9,92,82,70,30.24,30.03,1,0,3,0.12
2013-1-7,36.1,31.4,21.2,29.9,26.6,19.2,94,83,70,30.50,30.24,1,0,5,0.05
2013-1-8,45.7,27.7,16.1,33.4,23.5,13.9,93,85,58,30.43,30.31,1,0,4,0.11
2013-1-9,46.0,33.1,21.9,41.5,30.9,20.2,96,91,81,30.52,30.27,1,0,8,0.03
2013-1-10,41.0,34.6,25.6,31.7,29.1,24.1,96,81,66,30.65,30.33,1,0,3,0.00
2013-1-11,50.2,44.6,36.5,48.8,40.6,30.0,96,86,65,30.33,29.99,1,0,5,0.18
2013-1-12,61.9,50.2,40.8,58.2,48.7,39.7,97,95,83,30.11,29.96,1,0,3,0.01
2013-1-13,69.8,58.5,49.4,57.9,53.8,48.0,97,85,63,29.96,29.85,2,0,8,0.18
2013-1-14,57.6,40.3,32.0,55.9,33.7,24.8,95,78,61,30.38,29.88,2,0,8,0.02
2013-1-15,33.6,30.4,24.7,29.4,24.9,22.2,90,80,71,30.43,30.12,1,0,4,0.00
2013-1-16,34.8,33.1,31.7,33.5,31.5,29.3,95,94,90,30.12,29.93,1,0,3,0.23
2013-1-17,35.3,33.0,31.0,30.6,29.4,28.1,92,86,80,30.22,30.05,1,0,2,0.02
2013-1-18,32.3,27.5,19.6,28.6,17.8,9.7,88,67,50,30.55,30.19,2,1,11,0.01
2013-1-19,53.5,41.0,27.5,28.1,23.9,18.5,77,52,30,30.31,29.86,2,0,10,0.11
2013-1-20,44.9,36.1,24.7,33.0,21.6,14.0,66,56,43,30.17,29.80,3,1,10,0.00
2013-1-21,28.1,23.1,14.2,21.7,14.4,4.0,83,69,61,30.14,29.95,2,0,8,0.00
2013-1-22,15.8,11.5,8.1,8.4,2.2,-0.9,81,66,53,30.35,30.11,3,1,8,0.00
2013-1-23,18.4,13.3,6.2,10.9,4.0,0.5,80,67,52,30.39,30.15,2,0,7,0.00
2013-1-24,24.0,16.6,9.7,12.8,7.6,-1.4,88,69,37,30.61,30.13,3,0,8,0.00
2013-1-25,20.0,16.2,10.6,16.7,11.0,4.8,88,80,65,30.60,30.09,1,0,5,0.00
2013-1-26,29.5,23.1,12.3,23.7,18.7,9.4,91,83,72,30.51,30.16,1,0,5,0.03
2013-1-27,32.2,22.2,6.9,24.5,15.3,4.0,92,76,55,30.61,30.38,1,0,4,0.07
2013-1-28,47.4,39.0,30.7,46.5,37.0,22.1,97,93,68,30.39,30.05,1,0,3,0.52
2013-1-29,63.9,52.9,47.0,57.3,50.4,46.2,97,91,75,30.08,29.79,1,0,8,0.02
2013-1-30,68.0,57.0,48.4,58.0,52.5,45.3,95,86,64,29.80,29.22,3,1,9,0.98
2013-1-31,48.2,30.4,23.9,45.4,24.0,14.4,93,77,58,29.89,29.21,3,1,11,0.03
2013-2-1,23.8,17.8,10.7,20.8,10.1,4.3,88,72,62,30.41,29.86,2,1,8,0.00
2013-2-2,24.8,18.4,8.7,22.2,14.0,4.8,92,83,74,30.40,30.03,2,0,5,0.00
2013-2-3,29.3,24.5,19.6,24.0,20.3,14.2,92,84,71,30.08,29.87,2,0,9,0.01
2013-2-4,29.2,23.5,18.5,25.1,18.6,12.5,92,82,65,30.13,29.91,2,0,5,0.01
2013-2-5,32.7,29.3,27.1,30.4,27.2,25.1,94,92,86,29.99,29.86,0,0,1,0.00
2013-2-6,34.1,27.8,16.5,27.3,23.2,14.1,94,83,63,30.38,29.99,2,0,6,0.00
2013-2-7,42.7,29.2,14.5,30.2,22.9,12.2,93,78,59,30.37,30.02,2,0,5,0.06
2013-2-8,39.1,33.4,27.2,36.7,29.1,22.4,95,84,77,30.18,29.83,3,1,9,1.27
2013-2-9,34.6,26.3,18.6,22.4,19.0,15.9,90,75,53,30.45,30.18,3,1,7,10.59
2013-2-10,52.7,33.3,15.0,31.2,20.1,12.8,93,64,27,30.42,30.00,2,0,5,29.88
2013-2-11,64.0,47.1,37.9,49.8,36.0,25.8,96,69,34,30.01,29.66,3,1,13,0.08
2013-2-12,42.7,35.7,25.9,29.6,26.6,23.0,89,70,56,30.09,29.93,2,0,6,0.00
2013-2-13,40.0,30.7,22.2,32.8,26.9,20.2,94,87,64,29.96,29.72,1,0,2,0.01
2013-2-14,42.7,35.0,29.4,35.7,30.8,26.6,95,85,69,30.00,29.89,2,0,8,0.08
2013-2-15,41.0,36.0,28.5,36.0,30.3,24.6,93,80,63,30.08,29.94,2,0,6,0.00
2013-2-16,31.4,26.5,19.0,24.5,19.8,15.5,88,76,55,30.08,29.96,1,0,6,0.03
2013-2-17,25.2,20.8,13.6,19.9,14.0,7.5,90,76,59,30.32,29.96,2,1,9,0.01
2013-2-18,43.1,23.8,5.4,29.7,15.3,2.4,90,72,43,30.39,29.94,3,0,7,0.03
2013-2-19,44.5,35.5,26.2,40.2,30.3,16.9,92,81,64,29.97,29.70,3,1,13,0.15
2013-2-20,26.0,22.1,19.7,18.8,14.9,11.3,86,74,59,30.27,29.97,2,1,8,0.00
2013-2-21,26.1,22.4,18.9,18.2,16.0,14.1,85,76,64,30.41,30.24,1,0,5,0.01
2013-2-22,37.8,31.4,21.7,34.0,25.8,15.3,92,80,59,30.34,30.04,3,0,8,0.01
2013-2-23,44.7,35.8,28.5,37.9,32.0,26.7,94,86,73,30.05,29.89,1,0,3,0.00
2013-2-24,33.2,29.8,25.2,27.3,24.8,21.7,95,82,66,30.19,29.89,2,0,7,0.00
2013-2-25,42.2,32.1,20.8,27.3,23.9,18.8,94,73,50,30.28,30.09,2,0,6,0.00
2013-2-26,41.2,35.7,26.8,36.0,29.0,22.2,93,77,54,30.12,29.61,4,1,9,0.65
2013-2-27,45.4,39.6,34.4,41.4,36.7,32.3,95,90,78,29.70,29.58,1,0,7,0.20
2013-2-28,34.9,34.1,33.3,33.3,31.6,29.8,94,90,84,29.83,29.65,1,0,4,0.08
2013-3-1,33.4,31.0,26.9,31.4,26.5,21.3,93,83,76,30.01,29.83,2,0,7,0.01
2013-3-2,30.6,27.3,26.2,24.1,22.2,20.1,89,81,71,30.00,29.94,2,0,5,0.01
2013-3-3,30.0,27.1,24.4,23.9,21.6,19.0,90,80,70,30.05,29.96,2,0,6,0.01
2013-3-4,38.6,28.4,22.7,24.7,20.3,15.9,89,73,49,30.17,30.05,2,0,6,0.01
2013-3-5,45.2,33.2,18.5,27.7,18.9,13.7,92,60,28,30.15,29.72,4,1,13,0.00
2013-3-6,42.0,35.7,32.2,34.4,31.1,28.1,94,84,62,30.14,29.72,4,0,9,0.45
2013-3-7,43.2,36.5,33.2,32.4,30.3,27.8,89,79,57,30.31,30.13,2,0,7,0.01
2013-3-8,39.8,33.5,25.9,30.2,27.5,23.8,92,79,65,30.45,30.31,2,0,8,0.00
2013-3-9,52.7,36.2,21.8,35.0,27.4,19.8,95,73,38,30.45,30.22,3,0,5,0.01
2013-3-10,69.8,51.7,32.1,37.4,32.7,27.8,86,54,24,30.22,30.01,2,0,8,0.00
2013-3-11,63.8,55.1,46.4,49.3,37.0,29.5,88,53,30,30.02,29.69,3,1,10,0.11
2013-3-12,51.0,40.9,37.0,47.3,35.7,28.7,93,82,70,30.02,29.76,2,0,7,0.13
2013-3-13,38.9,32.9,28.6,32.1,27.3,20.0,91,80,63,30.17,29.94,3,1,9,0.04
2013-3-14,38.6,31.3,25.9,23.1,20.7,18.5,79,65,46,30.25,30.16,3,1,9,0.00
2013-3-15,50.9,37.8,23.4,37.4,28.2,20.1,89,70,50,30.18,29.84,2,0,5,0.01
2013-3-16,40.3,37.1,34.6,38.1,34.6,31.6,93,91,86,29.99,29.65,1,0,4,0.05
2013-3-17,37.4,33.2,29.3,31.6,25.3,22.3,89,73,58,30.23,29.99,1,0,6,0.00
2013-3-18,40.7,34.8,30.8,37.4,29.8,22.7,91,82,67,30.21,29.73,4,1,13,0.31
2013-3-19,49.2,39.1,29.9,41.3,29.1,18.0,95,70,38,29.99,29.72,4,1,13,0.05
2013-3-20,43.2,32.8,25.0,24.9,20.1,16.7,80,60,40,30.01,29.85,3,1,8,0.00
2013-3-21,31.6,26.1,19.6,21.5,15.2,9.0,86,64,45,29.95,29.89,2,0,6,0.00
2013-3-22,36.2,29.4,22.7,23.2,20.8,18.9,87,70,55,30.07,29.94,2,0,7,0.00
2013-3-23,46.3,31.7,18.5,26.8,21.8,16.3,92,70,41,30.09,30.02,2,0,7,0.00
2013-3-24,45.6,34.4,26.1,30.2,24.0,20.8,86,67,43,30.04,29.57,4,1,10,0.00
2013-3-25,38.6,34.1,31.6,35.2,31.9,29.5,94,92,83,29.77,29.49,2,0,7,0.47
2013-3-26,43.8,36.7,32.1,34.1,31.9,30.5,95,83,63,30.10,29.77,2,0,7,0.02
2013-3-27,44.7,36.9,32.9,34.3,31.1,26.3,94,81,51,30.18,30.08,2,0,8,0.06
2013-3-28,44.7,38.8,34.9,34.0,31.6,30.0,89,76,59,30.29,30.15,2,0,9,0.01
2013-3-29,54.8,42.8,34.6,34.8,30.0,22.4,89,64,31,30.30,30.17,2,0,9,0.00
2013-3-30,54.9,40.1,24.4,33.5,26.0,21.3,92,61,30,30.29,30.06,2,0,5,0.00
2013-3-31,50.5,43.1,34.4,46.8,38.3,27.0,94,83,66,30.06,29.75,2,0,4,0.10
2013-4-1,45.1,40.7,32.9,43.3,30.3,14.4,95,69,34,30.04,29.72,3,1,10,0.05
2013-4-2,42.0,33.1,27.0,21.7,18.8,14.9,75,57,36,30.22,30.04,2,0,8,0.00
2013-4-3,42.4,31.3,23.3,24.0,16.9,9.6,83,58,33,30.46,30.22,3,1,10,0.00
2013-4-4,55.5,36.9,17.5,29.1,17.0,9.0,86,52,16,30.44,30.00,2,0,7,0.00
2013-4-5,57.3,41.6,26.0,33.9,25.3,20.4,84,55,30,30.20,29.96,3,1,9,0.00
2013-4-6,58.0,41.7,22.7,30.6,20.1,9.8,88,49,15,30.33,30.05,2,0,8,0.00
2013-4-7,74.0,60.9,50.9,47.9,37.7,19.7,69,43,29,30.05,29.87,3,1,9,0.00
2013-4-8,75.5,61.2,45.7,51.3,46.1,40.3,84,60,35,30.04,29.88,2,0,7,0.00
2013-4-9,79.8,68.0,54.2,57.7,52.9,47.7,88,60,41,30.09,29.88,2,0,7,0.00
2013-4-10,81.1,66.8,58.6,67.4,58.3,52.0,94,76,49,29.97,29.77,4,0,7,0.62
2013-4-11,76.9,64.1,53.6,64.5,57.3,51.1,97,80,56,29.88,29.59,3,0,11,0.01
2013-4-12,66.5,58.4,46.0,61.3,50.8,34.6,94,77,55,29.85,29.49,4,1,11,0.55
2013-4-13,55.3,46.5,38.2,38.3,35.3,32.5,85,66,47,30.04,29.84,2,0,9,0.00
2013-4-14,61.8,48.1,29.6,40.8,33.2,27.0,92,59,36,30.19,30.03,2,0,5,0.00
2013-4-15,67.8,60.7,53.8,51.4,45.8,36.1,70,58,48,30.11,29.99,4,1,11,0.00
2013-4-16,78.9,63.8,51.2,60.9,54.5,47.7,94,73,52,30.18,30.02,4,0,9,0.56
2013-4-17,68.4,59.2,51.8,56.6,53.0,47.4,95,81,60,30.25,30.09,2,0,5,0.00
2013-4-18,84.5,72.3,58.7,62.8,57.5,53.9,89,63,40,30.11,29.75,4,1,11,0.00
2013-4-19,71.8,60.1,45.0,61.7,49.4,31.9,87,69,54,29.85,29.46,3,1,11,0.14
2013-4-20,49.7,42.3,33.1,33.7,29.4,24.5,82,61,42,30.43,29.85,3,1,9,0.01
2013-4-21,52.4,40.5,26.0,30.2,24.5,18.0,91,58,27,30.64,30.43,3,1,9,0.00
2013-4-22,62.4,51.3,40.6,35.1,27.8,21.3,65,41,24,30.50,30.30,4,1,8,0.00
2013-4-23,70.0,54.6,34.7,43.3,35.9,30.7,88,53,26,30.30,29.97,2,0,7,0.00
2013-4-24,72.5,55.1,41.3,58.0,46.1,35.0,92,73,49,30.17,29.75,3,1,9,0.26
2013-4-25,58.7,46.6,33.5,39.8,34.3,29.2,94,66,34,30.38,30.17,4,1,11,0.00
2013-4-26,59.7,47.3,33.8,40.7,34.4,25.7,95,66,29,30.49,30.37,2,0,6,0.00
2013-4-27,73.2,55.6,32.5,40.2,35.0,30.2,93,53,23,30.42,30.17,3,1,8,0.00
2013-4-28,61.2,56.3,52.4,52.8,47.2,39.4,89,72,45,30.17,29.95,2,1,9,0.18
2013-4-29,64.7,57.7,53.1,57.7,52.9,47.7,94,84,72,30.03,29.94,2,0,7,0.14
2013-4-30,73.0,61.4,50.4,56.8,52.4,48.7,96,74,53,30.19,30.03,4,1,9,0.00
2013-5-1,75.8,64.1,53.1,54.1,46.7,34.0,83,56,31,30.31,30.19,3,1,7,0.00
2013-5-2,76.6,62.7,45.7,44.2,37.3,29.2,80,43,19,30.36,30.20,4,1,12,0.00
2013-5-3,73.7,60.8,41.3,47.2,41.0,31.6,90,52,26,30.26,30.16,5,1,12,0.00
2013-5-4,70.0,57.8,46.5,45.5,41.0,34.9,70,55,30,30.22,30.08,4,1,10,0.00
2013-5-5,73.0,59.9,42.1,43.3,35.1,20.0,91,46,14,30.16,30.02,5,1,12,0.00
2013-5-6,70.7,59.2,43.4,54.0,46.4,35.9,84,63,46,30.09,30.00,4,1,11,0.00
2013-5-7,70.5,62.2,57.3,57.5,54.3,52.1,90,76,56,30.03,29.94,3,1,8,0.05
2013-5-8,72.4,63.0,52.8,55.9,52.0,45.5,94,70,39,29.99,29.88,3,0,6,0.19
2013-5-9,74.4,61.9,51.6,62.0,54.3,49.9,96,78,46,29.99,29.90,2,0,8,0.02
2013-5-10,76.3,61.2,52.8,64.8,57.2,50.4,95,88,62,30.00,29.80,3,0,9,0.66
2013-5-11,60.6,56.9,49.2,59.3,54.4,47.5,96,91,81,29.84,29.76,1,0,4,0.16
2013-5-12,55.7,48.8,37.8,49.5,35.8,28.8,95,62,39,30.06,29.82,3,1,9,0.00
2013-5-13,54.6,43.9,31.8,35.1,29.9,22.4,93,61,34,30.20,30.06,3,1,9,0.00
2013-5-14,60.9,46.5,29.2,44.1,35.1,27.4,94,67,43,30.23,29.92,2,0,6,0.00
2013-5-15,85.3,65.7,47.3,66.9,55.6,42.1,94,72,46,29.92,29.71,3,0,9,0.01
2013-5-16,78.2,68.3,58.6,64.1,57.8,48.0,95,72,36,29.97,29.75,2,0,8,0.15
2013-5-17,80.2,65.9,52.9,62.6,56.6,51.2,96,75,41,30.10,29.96,2,0,8,0.00
2013-5-18,81.8,67.6,52.2,63.2,55.4,48.1,90,67,40,30.13,30.01,2,0,7,0.00
2013-5-19,76.9,68.3,57.6,64.8,60.4,55.0,93,76,62,30.10,29.97,3,1,9,0.00
2013-5-20,83.6,71.5,58.8,69.5,63.9,57.1,96,78,56,30.03,29.89,2,0,5,0.00
2013-5-21,86.8,74.5,63.6,72.3,66.6,62.0,96,78,54,29.95,29.80,2,0,6,0.02
2013-5-22,86.5,70.6,62.5,69.3,63.9,60.3,95,81,50,29.88,29.74,3,1,10,0.70
2013-5-23,78.0,65.1,51.8,66.6,61.4,49.1,96,88,53,29.88,29.76,4,0,11,0.96
2013-5-24,51.5,46.0,39.6,49.2,39.5,32.5,93,79,58,30.30,29.88,3,1,8,0.04
2013-5-25,62.5,48.0,33.7,42.1,36.4,31.9,95,68,37,30.34,30.24,3,1,10,0.00
2013-5-26,66.3,52.0,34.8,43.2,38.1,32.4,94,63,34,30.31,30.22,3,1,9,0.00
2013-5-27,62.9,53.2,38.0,51.4,43.9,36.2,95,72,50,30.29,30.11,2,0,3,0.00
2013-5-28,78.2,64.6,54.4,69.4,59.5,48.6,96,84,67,30.11,29.98,2,0,8,0.19
2013-5-29,85.3,72.9,62.9,69.4,63.0,60.3,92,73,50,30.08,30.00,3,0,10,0.00
2013-5-30,86.8,72.5,58.5,72.5,63.8,56.8,96,76,44,30.17,30.06,2,0,5,0.00
2013-5-31,87.6,73.8,60.9,70.5,64.6,59.4,96,75,49,30.11,29.96,2,0,6,0.00
2013-6-1,86.6,75.8,66.2,70.8,66.2,61.9,93,73,53,30.00,29.78,2,0,8,0.02
2013-6-2,81.4,72.8,64.1,68.8,64.5,59.2,94,76,51,29.84,29.76,2,0,7,0.07
2013-6-3,66.5,63.7,61.6,60.5,58.0,50.1,87,82,66,29.97,29.84,1,0,5,0.00
2013-6-4,65.9,59.1,53.2,52.4,49.9,48.2,85,72,53,30.15,30.11,0,0,0,0.00
2013-6-5,80.8,62.9,48.2,63.5,52.6,45.8,93,71,49,30.15,29.92,2,0,5,0.00
2013-6-6,69.6,64.9,62.0,66.1,62.0,58.3,95,91,75,29.93,29.76,1,0,6,1.06
2013-6-7,66.5,63.3,59.6,62.9,60.6,55.1,96,91,83,29.84,29.73,1,0,4,0.00
2013-6-8,71.2,61.9,56.4,60.1,55.7,53.1,93,81,60,30.11,29.84,1,0,4,0.00
2013-6-9,82.9,69.8,54.6,66.1,59.9,52.9,96,73,46,30.17,30.00,2,0,7,0.00
2013-6-10,76.7,69.2,64.5,70.9,66.3,62.7,95,91,78,30.01,29.76,2,0,5,0.98
2013-6-11,75.7,68.3,63.2,69.4,64.3,61.7,96,88,68,29.87,29.77,2,0,7,0.02
2013-6-12,84.2,72.3,61.4,71.4,66.4,60.0,97,83,53,29.90,29.72,2,0,8,0.00
2013-6-13,72.5,67.3,61.1,70.7,63.3,55.8,95,87,78,29.77,29.51,4,1,11,1.02
2013-6-14,72.5,62.8,54.6,61.3,57.0,52.6,95,82,59,30.05,29.77,2,0,5,0.00
2013-6-15,77.5,64.7,49.5,59.0,53.9,46.0,97,72,35,30.14,30.00,2,0,5,0.00
2013-6-16,73.6,66.7,61.9,68.9,63.5,57.3,95,89,79,30.02,29.89,1,0,4,0.37
2013-6-17,84.0,72.1,65.0,68.2,64.1,58.3,96,78,45,29.97,29.87,2,0,5,0.02
2013-6-18,77.5,67.5,61.9,68.5,63.1,59.8,94,86,65,29.94,29.82,0,0,3,0.02
2013-6-19,75.5,65.0,55.4,60.5,54.0,46.1,90,70,38,30.14,29.93,2,0,7,0.00
2013-6-20,81.0,65.6,49.0,60.9,53.9,47.3,96,70,37,30.23,30.14,2,0,5,0.00
2013-6-21,84.2,69.7,53.6,65.3,58.3,51.9,96,71,38,30.25,30.14,2,0,4,0.00
2013-6-22,86.2,72.4,58.0,73.1,65.2,56.3,96,79,59,30.19,30.05,2,0,5,0.00
2013-6-23,89.6,75.9,64.5,72.4,67.7,63.0,96,77,48,30.14,30.02,2,0,6,0.00
2013-6-24,89.7,76.6,64.8,72.5,67.3,63.2,96,75,46,30.11,29.97,2,0,7,0.00
2013-6-25,88.8,75.7,65.6,73.6,67.4,62.5,95,77,50,30.03,29.84,4,0,9,0.38
2013-6-26,82.3,72.3,65.4,72.5,67.7,63.9,96,86,62,29.97,29.80,2,0,5,1.76
2013-6-27,76.7,70.3,66.3,73.0,68.1,64.1,96,93,83,29.80,29.61,1,0,5,0.67
2013-6-28,76.9,68.3,62.2,71.4,65.4,61.0,97,91,74,29.64,29.47,3,0,5,0.21
2013-6-29,79.2,68.9,59.9,68.9,63.8,58.8,97,85,62,29.68,29.53,2,0,6,0.00
2013-6-30,84.3,69.7,60.4,71.4,64.8,59.3,97,86,57,29.83,29.67,3,0,9,0.29
2013-7-1,78.5,70.2,65.5,69.4,66.3,64.0,96,88,69,29.94,29.80,1,0,4,0.35
2013-7-2,83.4,73.7,66.9,74.7,69.0,65.4,96,86,65,30.05,29.92,1,0,6,0.13
2013-7-3,86.4,75.7,66.7,73.1,68.6,65.1,96,80,58,30.15,30.04,3,0,9,0.00
2013-7-4,84.5,75.1,68.4,72.7,69.3,66.7,96,83,60,30.20,30.09,3,0,8,0.12
2013-7-5,86.2,75.0,67.1,74.3,69.6,65.9,97,84,62,30.15,30.07,2,0,5,0.00
2013-7-6,87.8,76.7,67.9,75.2,70.8,66.7,97,83,56,30.16,30.00,2,0,5,0.16
2013-7-7,78.5,73.4,69.1,72.1,69.3,67.0,94,87,73,30.09,29.99,1,0,5,0.06
2013-7-8,82.6,73.0,64.6,72.8,67.9,63.1,96,85,63,30.11,30.02,2,0,5,0.11
2013-7-9,80.3,72.4,67.9,75.6,70.1,66.3,96,93,84,30.09,29.94,1,0,4,0.57
2013-7-10,85.1,71.9,65.4,79.2,69.6,63.9,97,93,74,30.00,29.79,5,0,12,1.38
2013-7-11,77.7,69.0,61.2,66.3,63.2,58.3,97,83,57,29.99,29.87,1,0,5,0.00
2013-7-12,76.5,66.4,57.3,67.9,61.5,55.6,95,85,64,30.11,29.98,2,0,5,0.00
2013-7-13,82.3,72.6,61.3,70.5,65.4,59.4,95,79,61,30.22,30.08,2,0,7,0.00
2013-7-14,88.0,77.5,67.9,73.3,69.2,65.7,95,77,53,30.28,30.20,3,0,7,0.00
2013-7-15,90.1,77.2,67.3,74.6,70.3,65.8,96,81,51,30.32,30.21,2,0,5,0.00
2013-7-16,91.5,76.7,69.9,77.2,71.6,68.4,96,86,55,30.30,30.20,3,0,6,0.66
2013-7-17,89.1,75.4,69.0,78.6,72.4,67.8,97,91,65,30.29,30.14,3,0,10,0.67
2013-7-18,90.8,78.2,69.3,80.8,74.3,68.4,97,89,62,30.17,30.00,1,0,4,0.07
2013-7-19,91.5,78.9,71.5,79.0,73.7,69.7,97,85,59,30.01,29.83,2,0,8,0.03
2013-7-20,83.5,74.6,69.3,74.8,70.3,67.2,95,87,70,29.90,29.82,2,0,8,0.13
2013-7-21,84.3,72.5,67.1,74.4,68.5,64.6,96,88,64,29.95,29.88,3,0,8,1.21
2013-7-22,80.8,70.6,64.0,74.3,68.2,62.9,97,92,72,29.94,29.76,3,0,6,1.22
2013-7-23,82.3,72.9,67.5,72.3,68.5,66.0,97,87,66,29.77,29.68,1,0,7,0.03
2013-7-24,71.0,66.1,57.8,59.6,57.2,54.3,92,74,59,29.99,29.88,1,0,4,0.00
2013-7-25,63.7,55.4,52.2,54.9,52.3,50.5,95,90,72,30.05,29.99,1,0,3,0.00
2013-7-26,65.3,62.7,60.8,60.2,59.2,58.3,92,88,82,30.01,29.99,0,0,3,0.00
2013-7-27,71.7,64.8,58.3,68.0,62.7,57.2,97,93,85,30.00,29.84,2,0,6,0.76
2013-7-28,76.8,67.2,57.3,66.8,61.9,55.3,97,84,56,30.03,29.84,1,0,7,0.14
2013-7-29,75.1,62.7,51.9,61.9,56.3,50.6,97,81,53,30.20,30.03,2,0,8,0.00
2013-7-30,76.0,64.0,51.8,63.9,57.8,50.5,97,82,55,30.25,30.15,2,0,4,0.00
2013-7-31,80.5,66.8,56.2,68.4,62.3,55.1,97,87,55,30.16,29.95,2,0,6,0.02
2013-8-1,79.0,69.7,63.7,70.8,64.9,61.6,97,86,62,29.95,29.84,2,0,6,0.08
2013-8-2,78.3,67.8,57.6,65.6,60.8,54.9,97,80,50,29.98,29.89,2,0,7,0.00
2013-8-3,75.7,67.2,57.7,69.1,64.0,56.1,96,90,76,29.99,29.91,2,0,5,0.19
2013-8-4,75.4,63.0,53.4,61.9,56.6,52.3,97,81,55,30.09,29.98,2,0,6,0.02
2013-8-5,73.8,62.5,51.1,62.4,56.1,49.7,97,81,48,30.14,30.02,2,0,5,0.00
2013-8-6,79.7,66.2,54.4,62.9,57.9,53.0,96,77,45,30.04,29.96,2,0,5,0.00
2013-8-7,84.3,69.3,59.8,74.5,65.5,58.7,97,88,62,30.00,29.90,2,0,5,0.10
2013-8-8,85.1,73.8,64.6,76.2,69.7,63.4,97,88,70,29.97,29.88,2,0,8,0.00
2013-8-9,79.3,72.9,64.8,75.1,70.3,63.3,96,92,80,30.00,29.86,1,0,8,0.14
2013-8-10,80.0,69.7,62.0,69.4,64.4,60.8,97,85,61,30.08,29.99,1,0,4,0.00
2013-8-11,81.6,69.9,60.4,69.7,64.1,58.8,96,83,57,30.12,30.00,1,0,6,0.10
2013-8-12,82.3,72.1,65.4,70.4,67.1,64.2,97,85,60,30.05,29.86,1,0,5,0.00
2013-8-13,80.2,70.4,56.8,69.9,63.2,51.1,94,79,55,29.97,29.77,2,0,7,0.00
2013-8-14,67.8,57.8,49.4,56.7,52.3,48.0,96,83,62,30.16,29.96,2,0,6,0.00
2013-8-15,73.2,58.9,46.2,57.7,51.1,45.1,97,78,44,30.21,30.10,2,0,6,0.00
2013-8-16,77.8,63.4,51.5,62.1,55.5,49.8,96,78,44,30.17,30.12,2,0,4,0.00
2013-8-17,78.4,65.1,53.3,61.3,56.6,52.0,97,77,42,30.26,30.17,3,0,8,0.00
2013-8-18,73.0,66.0,60.8,66.4,61.9,57.6,95,87,72,30.22,30.13,2,0,4,0.02
2013-8-19,76.3,68.1,62.0,69.6,65.2,60.3,97,91,75,30.15,30.05,1,0,3,0.14
2013-8-20,82.5,67.3,55.4,67.5,61.4,54.3,97,83,49,30.19,30.10,2,0,4,0.00
2013-8-21,84.9,69.8,56.5,69.7,63.2,55.3,97,81,46,30.20,30.04,2,0,5,0.00
2013-8-22,82.7,71.6,64.9,73.7,68.0,63.4,96,89,68,30.09,29.96,2,0,5,0.60
2013-8-23,80.0,69.6,62.7,68.4,64.5,58.1,97,85,54,30.13,29.97,2,0,5,0.02
2013-8-24,80.0,66.4,54.8,65.6,59.4,53.4,97,80,51,30.29,30.13,2,0,5,0.00
2013-8-25,82.3,67.1,54.3,66.0,60.5,53.1,97,81,46,30.37,30.23,2,0,4,0.00
2013-8-26,85.0,70.6,57.6,69.8,63.7,56.5,97,81,51,30.25,30.01,1,0,5,0.00
2013-8-27,80.6,74.0,69.3,73.5,69.8,66.5,95,87,75,30.01,29.91,2,0,6,0.01
2013-8-28,76.4,71.6,68.6,74.5,70.0,67.4,97,95,85,29.93,29.80,2,0,4,1.02
2013-8-29,83.8,73.3,66.8,72.4,68.7,65.6,97,86,62,30.02,29.90,1,0,3,0.00
2013-8-30,86.3,73.2,62.3,74.6,68.4,61.1,97,86,59,30.00,29.81,2,0,7,0.00
2013-8-31,86.2,74.6,68.7,74.1,70.2,67.5,97,87,58,29.84,29.74,2,0,7,0.00
2013-9-1,77.2,72.2,69.6,73.1,70.2,68.1,96,93,85,29.83,29.75,1,0,3,0.15
2013-9-2,84.5,73.2,66.2,74.4,69.5,64.5,97,89,66,29.83,29.71,2,0,5,0.13
2013-9-3,72.6,64.9,58.5,64.5,59.4,55.9,97,83,59,30.04,29.81,2,0,6,0.01
2013-9-4,75.8,62.5,50.9,61.5,56.6,49.8,97,83,54,30.13,30.03,2,0,7,0.00
2013-9-5,74.4,63.6,53.5,61.8,55.8,48.7,97,78,50,30.21,30.06,2,0,7,0.00
2013-9-6,72.1,57.7,44.7,53.1,47.6,39.0,96,73,35,30.28,30.14,2,0,6,0.00
2013-9-7,78.3,61.2,45.1,60.8,53.2,43.8,97,78,41,30.14,29.95,2,0,5,0.00
2013-9-8,77.6,67.9,59.8,68.9,62.5,57.8,94,83,67,30.05,29.91,1,0,5,0.00
2013-9-9,81.9,66.9,55.5,72.5,63.0,54.1,96,88,66,30.10,29.99,3,0,6,1.87
2013-9-10,88.4,75.4,65.8,79.1,71.5,64.6,97,88,68,30.11,30.03,2,0,6,0.01
2013-9-11,85.3,75.0,70.1,78.8,72.1,68.6,97,91,74,30.13,29.99,2,0,16,0.26
2013-9-12,76.8,69.7,61.2,72.9,68.1,59.8,97,95,82,29.99,29.78,1,0,4,0.61
2013-9-13,67.2,58.9,52.0,60.6,54.7,47.3,97,86,66,30.03,29.80,2,0,6,0.21
2013-9-14,63.2,54.4,47.6,51.8,47.6,43.5,95,79,52,30.18,30.03,2,0,5,0.00
2013-9-15,69.0,56.2,43.2,60.3,50.9,42.1,97,84,57,30.22,30.07,2,0,6,0.00
2013-9-16,69.0,60.3,52.6,58.9,55.1,49.1,97,84,61,30.31,30.08,1,0,5,0.23
2013-9-17,67.4,55.5,45.3,53.6,47.7,43.7,95,77,47,30.41,30.27,2,0,6,0.00
2013-9-18,73.3,56.3,42.7,57.8,49.7,41.4,96,81,49,30.28,30.12,2,0,4,0.00
2013-9-19,76.7,64.3,55.7,64.8,59.5,53.7,95,85,59,30.15,30.02,2,0,4,0.00
2013-9-20,80.3,67.7,55.7,71.5,63.7,54.6,97,88,69,30.04,29.82,2,0,8,0.00
2013-9-21,71.3,63.6,57.1,67.3,61.7,55.8,97,94,83,29.83,29.66,3,0,7,0.97
2013-9-22,62.9,56.5,51.9,55.7,51.5,47.6,97,84,59,30.03,29.79,1,0,5,0.01
2013-9-23,56.7,51.7,42.6,49.5,45.9,41.3,95,81,62,30.17,30.02,1,0,5,0.00
2013-9-24,67.4,51.2,38.3,50.7,44.3,37.3,97,80,43,30.15,29.99,2,0,4,0.00
2013-9-25,73.2,56.2,44.0,56.7,49.3,42.8,97,81,42,30.01,29.89,2,0,6,0.00
2013-9-26,75.5,58.8,45.5,56.6,50.5,44.4,97,78,37,30.09,29.95,2,0,4,0.00
2013-9-27,75.4,58.9,45.6,57.3,51.6,44.5,97,79,46,30.20,30.08,2,0,7,0.00
2013-9-28,72.5,58.9,46.8,58.3,51.7,45.5,97,79,54,30.27,30.16,3,0,7,0.00
2013-9-29,73.5,59.1,46.8,61.9,53.3,45.3,96,83,56,30.17,30.00,2,0,5,0.00
2013-9-30,70.3,59.6,50.6,63.8,56.4,49.2,97,89,75,30.07,29.98,0,0,0,0.00
2013-10-1,77.5,64.6,57.5,64.8,59.6,55.9,97,85,59,30.08,29.99,1,0,4,0.00
2013-10-2,80.2,65.3,54.8,68.0,60.7,53.7,97,86,60,30.10,30.02,0,0,0,0.00
2013-10-3,77.2,65.7,56.5,70.7,62.9,55.4,97,91,71,30.10,30.00,0,0,0,0.04
2013-10-4,81.1,69.4,62.5,70.5,65.8,61.6,97,89,62,30.10,30.01,0,0,1,0.05
2013-10-5,79.8,68.4,62.2,71.8,65.8,61.3,98,92,72,30.08,29.97,1,0,3,0.72
2013-10-6,83.4,71.2,63.0,71.2,64.8,60.1,98,82,57,29.98,29.74,3,0,9,0.01
2013-10-7,70.2,57.9,46.4,62.5,51.9,44.4,94,81,63,30.14,29.67,2,0,7,0.33
2013-10-8,65.3,51.3,40.1,51.1,45.3,39.1,97,82,51,30.33,30.13,2,0,6,0.00
2013-10-9,67.5,52.4,39.1,50.9,43.9,38.1,97,76,41,30.36,30.26,4,0,7,0.00
2013-10-10,69.5,55.7,44.0,52.3,46.2,41.6,94,73,41,30.26,30.11,2,0,5,0.00
2013-10-11,60.9,56.1,52.1,57.7,52.6,47.7,94,88,76,30.11,30.06,1,0,4,0.09
2013-10-12,72.0,62.0,53.5,63.4,57.3,51.3,96,85,68,30.16,30.07,2,0,5,0.01
2013-10-13,70.2,62.5,56.7,61.5,57.8,54.3,94,85,71,30.26,30.15,2,0,5,0.04
2013-10-14,61.6,59.6,58.1,58.5,57.3,56.1,94,92,87,30.30,30.23,1,0,3,0.03
2013-10-15,71.1,60.5,49.5,62.2,56.4,48.4,97,87,68,30.23,29.98,2,0,6,0.00
2013-10-16,63.4,58.5,53.9,61.0,56.9,52.3,96,95,90,29.99,29.87,1,0,4,0.23
2013-10-17,62.1,55.7,50.0,60.7,52.9,48.3,95,90,78,29.92,29.67,2,0,8,0.54
2013-10-18,62.7,51.5,42.6,49.3,45.5,41.0,96,82,51,30.04,29.90,2,0,9,0.00
2013-10-19,55.0,45.4,36.7,48.8,42.4,35.7,97,90,75,30.00,29.77,2,0,7,0.06
2013-10-20,59.3,46.1,37.3,44.5,39.9,36.3,96,81,50,30.07,29.97,2,0,7,0.00
2013-10-21,66.2,49.3,35.0,45.6,39.9,33.7,96,74,35,30.09,29.87,3,0,6,0.00
2013-10-22,53.4,47.0,40.4,48.7,39.3,30.5,93,76,48,29.98,29.85,2,0,6,0.15
2013-10-23,42.9,40.3,35.1,40.6,37.6,33.8,95,90,79,29.96,29.78,2,0,4,0.17
2013-10-24,47.0,38.6,32.5,35.8,33.5,30.3,96,83,53,30.18,29.95,2,0,7,0.00
2013-10-25,47.6,38.7,31.2,37.3,33.0,29.7,95,81,52,30.37,30.18,2,0,5,0.00
2013-10-26,51.2,41.4,30.9,36.1,31.1,27.2,92,69,42,30.29,29.93,3,1,10,0.01
2013-10-27,52.5,41.5,31.1,38.3,33.9,29.3,96,76,48,30.14,30.00,2,0,6,0.00
2013-10-28,58.4,41.6,28.4,40.6,34.0,27.2,96,77,39,30.32,30.13,2,0,5,0.00
2013-10-29,59.5,45.1,32.4,43.4,38.4,31.1,96,79,47,30.41,30.29,2,0,4,0.00
2013-10-30,64.1,51.2,41.3,54.1,46.0,39.0,94,83,57,30.29,30.12,2,0,4,0.00
2013-10-31,67.2,61.0,56.1,60.8,57.3,53.5,96,88,73,30.12,29.47,3,1,8,0.18
2013-11-1,66.8,58.4,49.8,59.3,50.3,44.8,93,76,52,29.70,29.33,3,1,11,0.07
2013-11-2,54.2,49.1,43.8,46.8,44.2,41.4,93,84,65,29.97,29.66,2,0,6,0.05
2013-11-3,48.5,40.7,29.4,42.4,34.0,26.1,95,78,52,30.49,29.97,2,0,8,0.00
2013-11-4,46.0,36.8,26.6,29.4,24.9,22.2,90,64,39,30.60,30.47,3,0,6,0.00
2013-11-5,58.7,45.9,33.9,37.0,32.3,26.0,87,61,38,30.55,30.36,2,0,7,0.00
2013-11-6,72.5,53.6,32.6,56.8,44.0,29.9,94,72,46,30.36,29.93,3,0,9,0.00
2013-11-7,58.9,46.5,38.3,56.3,41.5,27.4,95,83,58,30.14,29.86,3,1,10,0.10
2013-11-8,46.2,37.7,27.5,33.3,29.8,25.1,91,74,50,30.33,30.10,2,0,8,0.00
2013-11-9,56.5,41.1,25.6,34.1,28.7,23.9,95,66,32,30.33,30.00,3,0,7,0.00
2013-11-10,51.5,44.4,33.5,38.7,33.7,29.5,85,67,49,30.30,29.99,3,1,7,0.00
2013-11-11,49.9,40.2,28.6,39.2,31.9,26.8,95,74,48,30.31,30.07,3,0,8,0.00
2013-11-12,36.4,31.5,27.3,33.4,25.7,19.1,93,80,53,30.51,30.13,3,0,7,0.01
2013-11-13,38.3,30.1,22.8,25.8,23.5,20.8,94,77,53,30.57,30.42,2,0,7,0.01
2013-11-14,48.2,34.6,24.9,27.7,24.3,21.6,88,68,38,30.42,30.22,2,0,7,0.00
2013-11-15,57.2,42.3,28.8,38.5,28.7,23.5,85,62,28,30.27,30.16,3,0,7,0.00
2013-11-16,61.3,49.9,35.3,49.6,43.0,33.5,95,78,61,30.27,30.05,2,0,5,0.00
2013-11-17,60.4,56.3,51.8,58.4,53.7,46.5,95,91,77,30.05,29.54,4,0,9,0.17
2013-11-18,57.0,48.8,39.7,53.3,37.4,27.4,92,66,44,30.07,29.62,3,1,12,0.01
2013-11-19,39.6,35.4,26.1,28.9,26.3,23.6,90,70,60,30.45,30.07,2,0,7,0.00
2013-11-20,48.2,34.9,22.5,25.1,19.6,13.0,94,60,25,30.53,30.41,4,1,8,0.00
2013-11-21,55.0,42.8,29.1,41.5,31.6,19.7,83,65,48,30.48,30.25,2,0,5,0.00
2013-11-22,53.5,48.7,37.5,52.4,46.0,32.6,96,90,76,30.26,30.07,3,0,8,0.00
2013-11-23,40.7,32.2,20.8,32.7,24.8,9.9,94,75,53,30.38,30.15,3,1,8,0.01
2013-11-24,22.3,18.7,15.4,15.3,12.1,9.9,83,75,65,30.58,30.38,2,1,9,0.00
2013-11-25,36.2,25.8,14.4,20.9,13.7,10.1,85,63,34,30.57,30.27,2,0,7,0.00
2013-11-26,36.3,33.5,31.8,33.3,31.4,20.5,96,92,53,30.28,29.75,1,0,3,0.01
2013-11-27,33.9,29.8,24.1,32.6,26.5,18.3,95,87,73,30.17,29.75,3,1,10,0.00
2013-11-28,30.7,25.8,17.6,24.1,18.8,14.0,87,75,58,30.48,30.17,2,0,5,0.00
2013-11-29,36.2,28.5,21.0,24.7,22.3,18.8,93,78,57,30.71,30.47,2,0,5,0.00
2013-11-30,40.6,30.1,22.4,27.4,22.9,18.9,91,76,52,30.68,30.28,2,0,6,0.00
2013-12-1,45.8,36.0,24.9,35.1,30.6,22.9,94,82,59,30.27,30.01,1,0,4,0.00
2013-12-2,49.6,40.8,35.7,39.4,35.3,32.4,92,81,62,30.01,29.85,1,0,4,0.00
2013-12-3,54.3,41.4,36.2,44.4,38.0,34.6,96,88,65,29.95,29.87,1,0,4,0.01
2013-12-4,59.5,45.7,33.4,49.6,41.5,32.1,97,86,66,30.03,29.90,1,0,3,0.00
2013-12-5,63.8,55.0,40.8,57.7,51.5,38.6,97,88,74,30.06,29.86,2,0,6,0.59
2013-12-6,40.7,34.7,29.6,38.5,32.6,27.6,95,92,88,30.32,30.02,1,0,6,0.00
2013-12-7,32.8,26.7,17.3,27.7,22.5,15.3,93,84,67,30.65,30.30,1,0,4,0.01
2013-12-8,31.6,24.2,16.6,30.1,20.7,14.0,94,86,78,30.65,30.13,2,0,7,0.00
2013-12-9,38.0,34.4,30.9,36.4,31.7,25.4,96,90,79,30.18,30.01,1,0,5,0.01
2013-12-10,31.0,26.8,21.1,26.4,20.8,13.4,92,78,57,30.31,30.07,1,0,5,0.00
2013-12-11,30.9,24.0,17.4,23.4,16.9,13.4,86,75,56,30.42,30.28,2,0,7,0.00
2013-12-12,23.4,19.8,12.8,16.4,10.2,6.5,84,67,52,30.53,30.32,2,0,10,0.00
2013-12-13,35.9,26.2,19.1,23.5,16.5,8.9,85,67,50,30.32,30.25,1,0,5,0.00
2013-12-14,35.4,32.0,27.4,34.0,29.2,23.0,95,90,74,30.30,29.69,1,0,8,0.00
2013-12-15,37.3,30.7,21.8,36.3,26.7,12.5,96,85,65,30.07,29.66,3,1,8,0.00
2013-12-16,25.8,23.1,19.9,21.9,16.7,13.1,86,76,68,30.23,30.07,3,0,9,0.00
2013-12-17,35.3,30.4,25.3,32.3,27.3,22.1,94,88,73,30.10,29.99,1,0,4,0.00
2013-12-18,31.2,26.5,18.6,25.5,22.1,16.4,93,84,70,30.25,30.07,1,0,4,0.00
2013-12-19,50.5,35.4,21.7,36.4,28.7,19.7,93,78,52,30.17,30.07,1,0,4,0.00
2013-12-20,52.8,45.8,32.1,49.5,40.5,30.2,94,82,63,30.07,29.91,1,0,6,0.00
2013-12-21,59.9,55.7,51.8,58.9,54.0,48.8,97,94,88,29.92,29.64,2,0,6,0.00
2013-12-22,64.2,58.6,53.3,59.8,55.4,49.2,96,89,84,29.94,29.55,5,1,11,0.00
2013-12-23,53.7,40.9,31.6,49.5,37.1,23.3,95,86,70,30.31,29.94,2,0,8,0.00
2013-12-24,31.6,24.9,14.4,25.5,17.3,9.5,89,73,54,30.58,30.26,3,1,9,0.00
2013-12-25,27.2,20.4,12.0,23.8,14.4,9.0,90,78,63,30.58,30.30,2,0,5,0.00
2013-12-26,38.1,30.0,22.2,29.7,24.6,17.7,93,81,59,30.40,30.20,2,0,7,0.00
2013-12-27,42.1,30.5,21.1,29.9,24.6,17.5,90,79,57,30.42,30.31,1,0,7,0.00
2013-12-28,52.7,37.6,26.1,35.1,29.0,22.7,88,72,48,30.32,30.10,2,0,7,0.00
2013-12-29,42.0,39.2,36.0,40.9,36.4,29.0,96,90,76,30.10,29.69,1,0,4,0.00
2013-12-30,40.1,28.1,23.1,38.5,24.0,18.0,94,84,76,30.23,29.86,2,0,7,0.00
2013-12-31,26.9,24.7,21.7,23.5,20.1,16.4,91,83,72,30.37,30.13,2,0,8,0.00
2014-1-1,36.0,29.2,25.2,28.2,24.0,20.5,88,81,71,30.38,30.09,1,0,5,0.00
2014-1-2,30.9,25.9,11.9,27.8,22.6,7.7,92,87,82,30.10,29.72,2,0,5,0.00